sensor_id;sensor_type;location;lat;lon;timestamp;P1;durP1;ratioP1;P2;durP2;ratioP2
53281;SDS011;39167;52.794;6.892;2023-01-30T00:00:28;53.65;;;28.00;;
53281;SDS011;39167;52.794;6.892;2023-01-30T00:02:53;54.97;;;28.17;;
53281;SDS011;39167;52.794;6.892;2023-01-30T00:05:19;52.35;;;27.45;;
53281;SDS011;39167;52.794;6.892;2023-01-30T00:07:48;57.85;;;29.20;;
53281;SDS011;39167;52.794;6.892;2023-01-30T00:10:14;54.40;;;27.20;;
53281;SDS011;39167;52.794;6.892;2023-01-30T00:12:39;51.55;;;26.13;;
53281;SDS011;39167;52.794;6.892;2023-01-30T00:15:05;51.50;;;27.92;;
53281;SDS011;39167;52.794;6.892;2023-01-30T00:17:32;46.15;;;26.60;;
53281;SDS011;39167;52.794;6.892;2023-01-30T00:19:58;51.10;;;26.52;;
53281;SDS011;39167;52.794;6.892;2023-01-30T00:22:24;49.92;;;26.63;;
53281;SDS011;39167;52.794;6.892;2023-01-30T00:24:49;53.65;;;25.90;;
53281;SDS011;39167;52.794;6.892;2023-01-30T00:27:15;60.10;;;27.23;;
53281;SDS011;39167;52.794;6.892;2023-01-30T00:29:41;57.05;;;27.27;;
53281;SDS011;39167;52.794;6.892;2023-01-30T00:32:07;52.60;;;27.02;;
53281;SDS011;39167;52.794;6.892;2023-01-30T00:34:32;49.17;;;27.10;;
53281;SDS011;39167;52.794;6.892;2023-01-30T00:36:58;45.90;;;25.85;;
53281;SDS011;39167;52.794;6.892;2023-01-30T00:39:24;54.33;;;27.98;;
53281;SDS011;39167;52.794;6.892;2023-01-30T00:41:50;45.22;;;25.67;;
53281;SDS011;39167;52.794;6.892;2023-01-30T00:44:35;47.75;;;26.52;;
53281;SDS011;39167;52.794;6.892;2023-01-30T00:47:19;47.92;;;25.65;;
53281;SDS011;39167;52.794;6.892;2023-01-30T00:49:45;48.28;;;24.48;;
53281;SDS011;39167;52.794;6.892;2023-01-30T00:52:11;46.53;;;24.42;;
53281;SDS011;39167;52.794;6.892;2023-01-30T00:54:37;46.83;;;23.80;;
53281;SDS011;39167;52.794;6.892;2023-01-30T00:57:02;49.17;;;25.90;;
53281;SDS011;39167;52.794;6.892;2023-01-30T00:59:28;44.78;;;24.90;;
53281;SDS011;39167;52.794;6.892;2023-01-30T01:01:54;46.58;;;25.52;;
53281;SDS011;39167;52.794;6.892;2023-01-30T01:04:19;40.53;;;22.20;;
53281;SDS011;39167;52.794;6.892;2023-01-30T01:06:45;47.78;;;24.80;;
53281;SDS011;39167;52.794;6.892;2023-01-30T01:09:11;39.85;;;22.38;;
53281;SDS011;39167;52.794;6.892;2023-01-30T01:11:37;41.30;;;22.25;;
53281;SDS011;39167;52.794;6.892;2023-01-30T01:14:03;39.97;;;23.52;;
53281;SDS011;39167;52.794;6.892;2023-01-30T01:16:30;41.83;;;22.58;;
53281;SDS011;39167;52.794;6.892;2023-01-30T01:18:56;37.35;;;21.88;;
53281;SDS011;39167;52.794;6.892;2023-01-30T01:21:22;43.17;;;22.45;;
53281;SDS011;39167;52.794;6.892;2023-01-30T01:23:49;42.03;;;22.90;;
53281;SDS011;39167;52.794;6.892;2023-01-30T01:26:16;39.92;;;21.25;;
53281;SDS011;39167;52.794;6.892;2023-01-30T01:28:42;40.92;;;21.85;;
53281;SDS011;39167;52.794;6.892;2023-01-30T01:31:11;39.78;;;20.38;;
53281;SDS011;39167;52.794;6.892;2023-01-30T01:33:38;35.13;;;21.60;;
53281;SDS011;39167;52.794;6.892;2023-01-30T01:36:04;36.33;;;18.88;;
53281;SDS011;39167;52.794;6.892;2023-01-30T01:38:30;37.50;;;20.00;;
53281;SDS011;39167;52.794;6.892;2023-01-30T01:40:56;41.90;;;19.27;;
53281;SDS011;39167;52.794;6.892;2023-01-30T01:43:55;43.13;;;19.90;;
53281;SDS011;39167;52.794;6.892;2023-01-30T01:49:05;35.90;;;17.92;;
53281;SDS011;39167;52.794;6.892;2023-01-30T01:51:39;36.72;;;19.23;;
53281;SDS011;39167;52.794;6.892;2023-01-30T01:54:12;35.88;;;18.27;;
53281;SDS011;39167;52.794;6.892;2023-01-30T01:56:41;34.95;;;19.20;;
53281;SDS011;39167;52.794;6.892;2023-01-30T01:59:14;34.58;;;17.95;;
53281;SDS011;39167;52.794;6.892;2023-01-30T02:01:47;36.47;;;19.05;;
53281;SDS011;39167;52.794;6.892;2023-01-30T02:04:14;35.83;;;18.25;;
53281;SDS011;39167;52.794;6.892;2023-01-30T02:07:00;33.47;;;16.25;;
53281;SDS011;39167;52.794;6.892;2023-01-30T02:09:26;28.08;;;15.30;;
53281;SDS011;39167;52.794;6.892;2023-01-30T02:11:53;34.60;;;16.67;;
53281;SDS011;39167;52.794;6.892;2023-01-30T02:14:24;29.52;;;14.27;;
53281;SDS011;39167;52.794;6.892;2023-01-30T02:16:50;27.17;;;14.68;;
53281;SDS011;39167;52.794;6.892;2023-01-30T02:25:04;21.45;;;12.02;;
53281;SDS011;39167;52.794;6.892;2023-01-30T02:27:56;20.73;;;11.15;;
53281;SDS011;39167;52.794;6.892;2023-01-30T02:39:04;16.98;;;7.60;;
53281;SDS011;39167;52.794;6.892;2023-01-30T02:44:09;15.30;;;6.55;;
53281;SDS011;39167;52.794;6.892;2023-01-30T02:47:00;16.30;;;7.53;;
53281;SDS011;39167;52.794;6.892;2023-01-30T02:49:36;15.73;;;6.82;;
53281;SDS011;39167;52.794;6.892;2023-01-30T02:52:05;11.55;;;5.38;;
53281;SDS011;39167;52.794;6.892;2023-01-30T02:54:32;13.15;;;5.75;;
53281;SDS011;39167;52.794;6.892;2023-01-30T02:56:58;10.18;;;5.43;;
53281;SDS011;39167;52.794;6.892;2023-01-30T02:59:29;11.40;;;5.00;;
53281;SDS011;39167;52.794;6.892;2023-01-30T03:04:56;10.07;;;5.00;;
53281;SDS011;39167;52.794;6.892;2023-01-30T03:10:25;12.15;;;4.93;;
53281;SDS011;39167;52.794;6.892;2023-01-30T03:16:04;11.82;;;4.53;;
53281;SDS011;39167;52.794;6.892;2023-01-30T03:18:34;14.35;;;5.35;;
53281;SDS011;39167;52.794;6.892;2023-01-30T03:21:04;10.48;;;4.43;;
53281;SDS011;39167;52.794;6.892;2023-01-30T03:23:31;13.10;;;5.07;;
53281;SDS011;39167;52.794;6.892;2023-01-30T03:25:56;10.00;;;4.80;;
53281;SDS011;39167;52.794;6.892;2023-01-30T03:28:23;13.43;;;5.32;;
53281;SDS011;39167;52.794;6.892;2023-01-30T03:30:50;12.80;;;5.13;;
53281;SDS011;39167;52.794;6.892;2023-01-30T03:33:16;16.08;;;5.30;;
53281;SDS011;39167;52.794;6.892;2023-01-30T03:35:41;10.90;;;4.68;;
53281;SDS011;39167;52.794;6.892;2023-01-30T03:38:07;12.13;;;4.80;;
53281;SDS011;39167;52.794;6.892;2023-01-30T03:40:33;16.70;;;5.78;;
53281;SDS011;39167;52.794;6.892;2023-01-30T03:42:59;12.93;;;4.70;;
53281;SDS011;39167;52.794;6.892;2023-01-30T03:45:25;16.40;;;5.10;;
53281;SDS011;39167;52.794;6.892;2023-01-30T03:47:51;18.10;;;4.60;;
53281;SDS011;39167;52.794;6.892;2023-01-30T03:50:16;14.73;;;5.20;;
53281;SDS011;39167;52.794;6.892;2023-01-30T03:52:42;16.85;;;4.93;;
53281;SDS011;39167;52.794;6.892;2023-01-30T03:55:08;20.65;;;5.40;;
53281;SDS011;39167;52.794;6.892;2023-01-30T03:57:34;11.27;;;4.45;;
53281;SDS011;39167;52.794;6.892;2023-01-30T03:59:59;17.65;;;5.75;;
53281;SDS011;39167;52.794;6.892;2023-01-30T04:02:25;19.58;;;5.18;;
53281;SDS011;39167;52.794;6.892;2023-01-30T04:04:51;21.00;;;4.25;;
53281;SDS011;39167;52.794;6.892;2023-01-30T04:07:17;14.13;;;4.47;;
53281;SDS011;39167;52.794;6.892;2023-01-30T04:09:43;17.02;;;4.22;;
53281;SDS011;39167;52.794;6.892;2023-01-30T04:12:09;22.42;;;4.65;;
53281;SDS011;39167;52.794;6.892;2023-01-30T04:14:34;14.77;;;4.65;;
53281;SDS011;39167;52.794;6.892;2023-01-30T04:17:00;15.07;;;4.15;;
53281;SDS011;39167;52.794;6.892;2023-01-30T04:19:26;16.00;;;3.58;;
53281;SDS011;39167;52.794;6.892;2023-01-30T04:21:52;14.30;;;3.95;;
53281;SDS011;39167;52.794;6.892;2023-01-30T04:24:17;18.80;;;4.57;;
53281;SDS011;39167;52.794;6.892;2023-01-30T04:26:43;14.15;;;3.75;;
53281;SDS011;39167;52.794;6.892;2023-01-30T04:29:09;16.65;;;3.75;;
53281;SDS011;39167;52.794;6.892;2023-01-30T04:31:35;16.33;;;3.90;;
53281;SDS011;39167;52.794;6.892;2023-01-30T04:34:00;16.17;;;3.97;;
53281;SDS011;39167;52.794;6.892;2023-01-30T04:36:26;15.48;;;4.75;;
53281;SDS011;39167;52.794;6.892;2023-01-30T04:38:53;19.65;;;4.15;;
53281;SDS011;39167;52.794;6.892;2023-01-30T04:41:20;22.98;;;4.65;;
53281;SDS011;39167;52.794;6.892;2023-01-30T04:43:46;23.90;;;4.65;;
53281;SDS011;39167;52.794;6.892;2023-01-30T04:46:11;24.58;;;4.45;;
53281;SDS011;39167;52.794;6.892;2023-01-30T04:48:37;21.77;;;4.80;;
53281;SDS011;39167;52.794;6.892;2023-01-30T04:51:03;15.57;;;4.00;;
53281;SDS011;39167;52.794;6.892;2023-01-30T04:53:29;16.65;;;4.75;;
53281;SDS011;39167;52.794;6.892;2023-01-30T04:55:55;21.42;;;4.50;;
53281;SDS011;39167;52.794;6.892;2023-01-30T04:58:21;18.00;;;3.97;;
53281;SDS011;39167;52.794;6.892;2023-01-30T05:00:46;20.85;;;4.72;;
53281;SDS011;39167;52.794;6.892;2023-01-30T05:03:13;18.42;;;4.22;;
53281;SDS011;39167;52.794;6.892;2023-01-30T05:05:39;18.33;;;4.57;;
53281;SDS011;39167;52.794;6.892;2023-01-30T05:08:05;17.17;;;4.20;;
53281;SDS011;39167;52.794;6.892;2023-01-30T05:10:31;20.70;;;4.78;;
53281;SDS011;39167;52.794;6.892;2023-01-30T05:13:00;26.00;;;4.22;;
53281;SDS011;39167;52.794;6.892;2023-01-30T05:15:27;18.10;;;3.95;;
53281;SDS011;39167;52.794;6.892;2023-01-30T05:17:53;16.98;;;4.07;;
53281;SDS011;39167;52.794;6.892;2023-01-30T05:20:19;19.05;;;4.28;;
53281;SDS011;39167;52.794;6.892;2023-01-30T05:22:44;23.73;;;4.05;;
53281;SDS011;39167;52.794;6.892;2023-01-30T05:25:10;17.33;;;3.55;;
53281;SDS011;39167;52.794;6.892;2023-01-30T05:27:36;21.85;;;3.97;;
53281;SDS011;39167;52.794;6.892;2023-01-30T05:30:01;16.63;;;3.50;;
53281;SDS011;39167;52.794;6.892;2023-01-30T05:32:28;21.83;;;4.20;;
53281;SDS011;39167;52.794;6.892;2023-01-30T05:34:55;20.20;;;3.60;;
53281;SDS011;39167;52.794;6.892;2023-01-30T05:37:21;22.70;;;5.25;;
53281;SDS011;39167;52.794;6.892;2023-01-30T05:39:46;21.75;;;5.10;;
53281;SDS011;39167;52.794;6.892;2023-01-30T05:42:13;18.60;;;3.55;;
53281;SDS011;39167;52.794;6.892;2023-01-30T05:44:39;20.65;;;3.60;;
53281;SDS011;39167;52.794;6.892;2023-01-30T05:47:05;17.42;;;3.97;;
53281;SDS011;39167;52.794;6.892;2023-01-30T05:49:31;20.52;;;4.25;;
53281;SDS011;39167;52.794;6.892;2023-01-30T05:51:56;23.15;;;3.45;;
53281;SDS011;39167;52.794;6.892;2023-01-30T05:54:22;24.73;;;5.07;;
53281;SDS011;39167;52.794;6.892;2023-01-30T05:56:48;19.85;;;4.10;;
53281;SDS011;39167;52.794;6.892;2023-01-30T05:59:14;24.15;;;4.57;;
53281;SDS011;39167;52.794;6.892;2023-01-30T06:01:42;21.23;;;4.15;;
53281;SDS011;39167;52.794;6.892;2023-01-30T06:04:08;16.55;;;3.55;;
53281;SDS011;39167;52.794;6.892;2023-01-30T06:06:34;23.98;;;4.80;;
53281;SDS011;39167;52.794;6.892;2023-01-30T06:09:00;20.58;;;3.50;;
53281;SDS011;39167;52.794;6.892;2023-01-30T06:11:26;18.88;;;3.10;;
53281;SDS011;39167;52.794;6.892;2023-01-30T06:13:51;16.88;;;3.63;;
53281;SDS011;39167;52.794;6.892;2023-01-30T06:16:17;18.02;;;3.72;;
53281;SDS011;39167;52.794;6.892;2023-01-30T06:18:44;16.98;;;3.72;;
53281;SDS011;39167;52.794;6.892;2023-01-30T06:21:13;24.90;;;3.90;;
53281;SDS011;39167;52.794;6.892;2023-01-30T06:23:40;23.63;;;4.05;;
53281;SDS011;39167;52.794;6.892;2023-01-30T06:26:07;27.38;;;4.00;;
53281;SDS011;39167;52.794;6.892;2023-01-30T06:28:33;20.02;;;3.47;;
53281;SDS011;39167;52.794;6.892;2023-01-30T06:30:59;22.50;;;3.80;;
53281;SDS011;39167;52.794;6.892;2023-01-30T06:33:25;18.95;;;3.20;;
53281;SDS011;39167;52.794;6.892;2023-01-30T06:35:51;27.73;;;4.03;;
53281;SDS011;39167;52.794;6.892;2023-01-30T06:38:17;22.98;;;3.88;;
53281;SDS011;39167;52.794;6.892;2023-01-30T06:40:45;24.00;;;4.05;;
53281;SDS011;39167;52.794;6.892;2023-01-30T06:43:12;22.42;;;3.85;;
53281;SDS011;39167;52.794;6.892;2023-01-30T06:45:39;24.38;;;4.03;;
53281;SDS011;39167;52.794;6.892;2023-01-30T06:48:04;25.13;;;3.95;;
53281;SDS011;39167;52.794;6.892;2023-01-30T06:50:30;17.98;;;3.67;;
53281;SDS011;39167;52.794;6.892;2023-01-30T06:52:56;20.02;;;3.70;;
53281;SDS011;39167;52.794;6.892;2023-01-30T06:55:23;17.23;;;3.85;;
53281;SDS011;39167;52.794;6.892;2023-01-30T06:57:59;27.92;;;3.90;;
53281;SDS011;39167;52.794;6.892;2023-01-30T07:00:29;20.25;;;3.63;;
53281;SDS011;39167;52.794;6.892;2023-01-30T07:02:56;20.27;;;3.42;;
53281;SDS011;39167;52.794;6.892;2023-01-30T07:05:22;27.50;;;4.38;;
53281;SDS011;39167;52.794;6.892;2023-01-30T07:07:48;27.55;;;4.25;;
53281;SDS011;39167;52.794;6.892;2023-01-30T07:10:13;20.83;;;3.50;;
53281;SDS011;39167;52.794;6.892;2023-01-30T07:12:39;22.25;;;3.40;;
53281;SDS011;39167;52.794;6.892;2023-01-30T07:15:05;21.83;;;3.95;;
53281;SDS011;39167;52.794;6.892;2023-01-30T07:17:31;17.88;;;3.35;;
53281;SDS011;39167;52.794;6.892;2023-01-30T07:19:57;25.48;;;4.63;;
53281;SDS011;39167;52.794;6.892;2023-01-30T07:22:23;22.80;;;3.65;;
53281;SDS011;39167;52.794;6.892;2023-01-30T07:24:49;22.60;;;3.38;;
53281;SDS011;39167;52.794;6.892;2023-01-30T07:27:14;23.65;;;3.65;;
53281;SDS011;39167;52.794;6.892;2023-01-30T07:29:40;21.40;;;4.00;;
53281;SDS011;39167;52.794;6.892;2023-01-30T07:32:07;20.00;;;4.45;;
53281;SDS011;39167;52.794;6.892;2023-01-30T07:34:40;20.75;;;3.70;;
53281;SDS011;39167;52.794;6.892;2023-01-30T07:37:06;18.38;;;3.50;;
53281;SDS011;39167;52.794;6.892;2023-01-30T07:39:32;19.70;;;4.30;;
53281;SDS011;39167;52.794;6.892;2023-01-30T07:41:59;22.92;;;4.65;;
53281;SDS011;39167;52.794;6.892;2023-01-30T07:44:25;21.30;;;3.47;;
53281;SDS011;39167;52.794;6.892;2023-01-30T07:46:51;17.70;;;3.58;;
53281;SDS011;39167;52.794;6.892;2023-01-30T07:49:17;19.42;;;3.67;;
53281;SDS011;39167;52.794;6.892;2023-01-30T07:51:42;19.15;;;3.60;;
53281;SDS011;39167;52.794;6.892;2023-01-30T07:54:08;28.45;;;3.70;;
53281;SDS011;39167;52.794;6.892;2023-01-30T07:56:34;25.48;;;4.63;;
53281;SDS011;39167;52.794;6.892;2023-01-30T07:58:59;31.15;;;3.75;;
53281;SDS011;39167;52.794;6.892;2023-01-30T08:01:26;31.92;;;3.88;;
53281;SDS011;39167;52.794;6.892;2023-01-30T08:03:52;25.98;;;3.85;;
53281;SDS011;39167;52.794;6.892;2023-01-30T08:06:18;15.75;;;3.72;;
53281;SDS011;39167;52.794;6.892;2023-01-30T08:08:43;20.08;;;3.75;;
53281;SDS011;39167;52.794;6.892;2023-01-30T08:11:10;24.48;;;4.05;;
53281;SDS011;39167;52.794;6.892;2023-01-30T08:13:35;19.75;;;3.80;;
53281;SDS011;39167;52.794;6.892;2023-01-30T08:16:02;25.75;;;3.38;;
53281;SDS011;39167;52.794;6.892;2023-01-30T08:18:28;22.52;;;4.65;;
53281;SDS011;39167;52.794;6.892;2023-01-30T08:20:58;21.45;;;3.55;;
53281;SDS011;39167;52.794;6.892;2023-01-30T08:23:24;19.63;;;3.75;;
53281;SDS011;39167;52.794;6.892;2023-01-30T08:26:08;19.63;;;3.75;;
53281;SDS011;39167;52.794;6.892;2023-01-30T08:28:34;19.73;;;4.20;;
53281;SDS011;39167;52.794;6.892;2023-01-30T08:30:59;20.15;;;4.05;;
53281;SDS011;39167;52.794;6.892;2023-01-30T08:33:25;30.05;;;5.22;;
53281;SDS011;39167;52.794;6.892;2023-01-30T08:35:51;22.45;;;4.03;;
53281;SDS011;39167;52.794;6.892;2023-01-30T08:38:17;24.73;;;4.22;;
53281;SDS011;39167;52.794;6.892;2023-01-30T08:40:43;27.92;;;3.95;;
53281;SDS011;39167;52.794;6.892;2023-01-30T08:43:08;20.40;;;3.50;;
53281;SDS011;39167;52.794;6.892;2023-01-30T08:45:34;25.23;;;3.10;;
53281;SDS011;39167;52.794;6.892;2023-01-30T08:48:04;21.25;;;4.15;;
53281;SDS011;39167;52.794;6.892;2023-01-30T08:50:30;18.67;;;3.40;;
53281;SDS011;39167;52.794;6.892;2023-01-30T08:53:01;21.45;;;3.60;;
53281;SDS011;39167;52.794;6.892;2023-01-30T08:55:28;24.55;;;4.45;;
53281;SDS011;39167;52.794;6.892;2023-01-30T08:57:55;29.15;;;4.72;;
53281;SDS011;39167;52.794;6.892;2023-01-30T09:00:21;23.13;;;3.75;;
53281;SDS011;39167;52.794;6.892;2023-01-30T09:02:46;22.52;;;4.32;;
53281;SDS011;39167;52.794;6.892;2023-01-30T09:17:50;20.42;;;4.15;;
53281;SDS011;39167;52.794;6.892;2023-01-30T09:20:16;29.67;;;5.10;;
53281;SDS011;39167;52.794;6.892;2023-01-30T09:22:45;32.33;;;6.15;;
53281;SDS011;39167;52.794;6.892;2023-01-30T09:25:11;29.50;;;4.68;;
53281;SDS011;39167;52.794;6.892;2023-01-30T09:27:37;27.50;;;5.28;;
53281;SDS011;39167;52.794;6.892;2023-01-30T09:30:03;22.15;;;4.28;;
53281;SDS011;39167;52.794;6.892;2023-01-30T09:32:33;24.45;;;4.03;;
53281;SDS011;39167;52.794;6.892;2023-01-30T09:35:01;28.25;;;4.63;;
53281;SDS011;39167;52.794;6.892;2023-01-30T09:37:27;21.73;;;4.35;;
53281;SDS011;39167;52.794;6.892;2023-01-30T09:39:53;24.52;;;3.95;;
53281;SDS011;39167;52.794;6.892;2023-01-30T09:48:14;28.23;;;4.32;;
53281;SDS011;39167;52.794;6.892;2023-01-30T09:56:10;19.15;;;4.10;;
53281;SDS011;39167;52.794;6.892;2023-01-30T09:58:57;33.95;;;4.60;;
53281;SDS011;39167;52.794;6.892;2023-01-30T10:01:26;22.08;;;3.90;;
53281;SDS011;39167;52.794;6.892;2023-01-30T10:04:42;29.65;;;4.65;;
53281;SDS011;39167;52.794;6.892;2023-01-30T10:07:50;25.40;;;4.85;;
53281;SDS011;39167;52.794;6.892;2023-01-30T10:10:12;25.55;;;3.53;;
53281;SDS011;39167;52.794;6.892;2023-01-30T10:15:54;22.17;;;4.63;;
53281;SDS011;39167;52.794;6.892;2023-01-30T10:21:51;29.63;;;5.40;;
53281;SDS011;39167;52.794;6.892;2023-01-30T10:24:47;26.83;;;4.35;;
53281;SDS011;39167;52.794;6.892;2023-01-30T10:27:24;17.08;;;3.75;;
53281;SDS011;39167;52.794;6.892;2023-01-30T10:29:53;27.35;;;4.22;;
53281;SDS011;39167;52.794;6.892;2023-01-30T10:34:54;26.05;;;3.78;;
53281;SDS011;39167;52.794;6.892;2023-01-30T10:37:29;21.67;;;3.90;;
53281;SDS011;39167;52.794;6.892;2023-01-30T10:40:04;28.05;;;4.53;;
53281;SDS011;39167;52.794;6.892;2023-01-30T10:50:39;19.23;;;4.25;;
53281;SDS011;39167;52.794;6.892;2023-01-30T10:55:45;27.85;;;4.35;;
53281;SDS011;39167;52.794;6.892;2023-01-30T10:58:35;22.48;;;4.18;;
53281;SDS011;39167;52.794;6.892;2023-01-30T11:03:54;28.33;;;5.47;;
53281;SDS011;39167;52.794;6.892;2023-01-30T11:06:25;27.05;;;4.60;;
53281;SDS011;39167;52.794;6.892;2023-01-30T11:08:52;34.08;;;4.45;;
53281;SDS011;39167;52.794;6.892;2023-01-30T11:14:08;21.17;;;4.22;;
53281;SDS011;39167;52.794;6.892;2023-01-30T11:16:53;18.67;;;3.88;;
53281;SDS011;39167;52.794;6.892;2023-01-30T11:19:30;23.85;;;4.20;;
53281;SDS011;39167;52.794;6.892;2023-01-30T11:22:00;21.85;;;4.65;;
53281;SDS011;39167;52.794;6.892;2023-01-30T11:24:37;20.55;;;3.75;;
53281;SDS011;39167;52.794;6.892;2023-01-30T11:27:18;19.08;;;3.20;;
53281;SDS011;39167;52.794;6.892;2023-01-30T11:29:49;21.85;;;3.50;;
53281;SDS011;39167;52.794;6.892;2023-01-30T11:32:31;20.25;;;3.60;;
53281;SDS011;39167;52.794;6.892;2023-01-30T11:37:32;19.55;;;3.50;;
53281;SDS011;39167;52.794;6.892;2023-01-30T11:40:06;20.83;;;3.97;;
53281;SDS011;39167;52.794;6.892;2023-01-30T11:42:45;19.65;;;3.10;;
53281;SDS011;39167;52.794;6.892;2023-01-30T11:45:12;15.10;;;3.35;;
53281;SDS011;39167;52.794;6.892;2023-01-30T11:47:38;16.27;;;3.13;;
53281;SDS011;39167;52.794;6.892;2023-01-30T11:50:16;26.42;;;4.18;;
53281;SDS011;39167;52.794;6.892;2023-01-30T11:52:43;19.23;;;3.45;;
53281;SDS011;39167;52.794;6.892;2023-01-30T11:55:14;20.23;;;3.10;;
53281;SDS011;39167;52.794;6.892;2023-01-30T11:57:44;24.67;;;3.75;;
53281;SDS011;39167;52.794;6.892;2023-01-30T12:00:18;25.27;;;4.40;;
53281;SDS011;39167;52.794;6.892;2023-01-30T12:02:48;11.95;;;2.30;;
53281;SDS011;39167;52.794;6.892;2023-01-30T12:05:35;15.93;;;3.63;;
53281;SDS011;39167;52.794;6.892;2023-01-30T12:10:44;11.80;;;2.25;;
53281;SDS011;39167;52.794;6.892;2023-01-30T12:13:24;12.68;;;2.78;;
53281;SDS011;39167;52.794;6.892;2023-01-30T12:19:14;13.40;;;2.22;;
53281;SDS011;39167;52.794;6.892;2023-01-30T12:22:17;12.23;;;1.88;;
53281;SDS011;39167;52.794;6.892;2023-01-30T12:24:45;9.55;;;1.35;;
53281;SDS011;39167;52.794;6.892;2023-01-30T12:27:28;22.00;;;2.50;;
53281;SDS011;39167;52.794;6.892;2023-01-30T12:30:27;9.43;;;1.60;;
53281;SDS011;39167;52.794;6.892;2023-01-30T12:33:04;12.68;;;1.60;;
53281;SDS011;39167;52.794;6.892;2023-01-30T12:42:21;11.48;;;2.38;;
53281;SDS011;39167;52.794;6.892;2023-01-30T12:47:02;15.18;;;2.20;;
53281;SDS011;39167;52.794;6.892;2023-01-30T12:52:41;9.48;;;1.95;;
53281;SDS011;39167;52.794;6.892;2023-01-30T12:56:10;12.40;;;2.30;;
53281;SDS011;39167;52.794;6.892;2023-01-30T12:58:45;10.68;;;2.58;;
53281;SDS011;39167;52.794;6.892;2023-01-30T13:01:30;14.55;;;2.42;;
53281;SDS011;39167;52.794;6.892;2023-01-30T13:04:02;16.88;;;2.22;;
53281;SDS011;39167;52.794;6.892;2023-01-30T13:07:10;15.48;;;3.20;;
53281;SDS011;39167;52.794;6.892;2023-01-30T13:17:47;17.20;;;2.67;;
53281;SDS011;39167;52.794;6.892;2023-01-30T13:25:24;18.27;;;3.33;;
53281;SDS011;39167;52.794;6.892;2023-01-30T13:30:38;18.27;;;3.15;;
53281;SDS011;39167;52.794;6.892;2023-01-30T13:33:08;15.25;;;2.60;;
53281;SDS011;39167;52.794;6.892;2023-01-30T13:35:43;12.52;;;3.42;;
53281;SDS011;39167;52.794;6.892;2023-01-30T13:38:16;14.48;;;2.75;;
53281;SDS011;39167;52.794;6.892;2023-01-30T13:40:44;18.05;;;2.83;;
53281;SDS011;39167;52.794;6.892;2023-01-30T13:43:21;15.50;;;2.95;;
53281;SDS011;39167;52.794;6.892;2023-01-30T13:45:49;15.80;;;3.55;;
53281;SDS011;39167;52.794;6.892;2023-01-30T13:51:17;14.77;;;2.60;;
53281;SDS011;39167;52.794;6.892;2023-01-30T13:53:57;12.50;;;2.33;;
53281;SDS011;39167;52.794;6.892;2023-01-30T13:56:42;26.92;;;3.85;;
53281;SDS011;39167;52.794;6.892;2023-01-30T14:09:45;15.40;;;3.28;;
53281;SDS011;39167;52.794;6.892;2023-01-30T14:12:34;20.52;;;3.40;;
53281;SDS011;39167;52.794;6.892;2023-01-30T14:21:15;27.35;;;4.72;;
53281;SDS011;39167;52.794;6.892;2023-01-30T14:23:56;21.67;;;4.13;;
53281;SDS011;39167;52.794;6.892;2023-01-30T14:29:49;16.65;;;4.13;;
53281;SDS011;39167;52.794;6.892;2023-01-30T14:37:24;24.88;;;3.60;;
53281;SDS011;39167;52.794;6.892;2023-01-30T14:39:51;22.85;;;4.97;;
53281;SDS011;39167;52.794;6.892;2023-01-30T14:42:20;23.98;;;4.53;;
53281;SDS011;39167;52.794;6.892;2023-01-30T14:47:40;31.42;;;4.43;;
53281;SDS011;39167;52.794;6.892;2023-01-30T14:50:17;20.77;;;4.10;;
53281;SDS011;39167;52.794;6.892;2023-01-30T14:52:45;18.67;;;3.92;;
53281;SDS011;39167;52.794;6.892;2023-01-30T14:55:18;22.70;;;4.30;;
53281;SDS011;39167;52.794;6.892;2023-01-30T14:57:49;27.02;;;5.20;;
53281;SDS011;39167;52.794;6.892;2023-01-30T15:00:22;31.25;;;4.97;;
53281;SDS011;39167;52.794;6.892;2023-01-30T15:02:52;28.97;;;4.20;;
53281;SDS011;39167;52.794;6.892;2023-01-30T15:05:27;24.60;;;4.50;;
53281;SDS011;39167;52.794;6.892;2023-01-30T15:08:10;23.73;;;4.60;;
53281;SDS011;39167;52.794;6.892;2023-01-30T15:16:38;23.42;;;5.00;;
53281;SDS011;39167;52.794;6.892;2023-01-30T15:32:30;24.75;;;5.45;;
53281;SDS011;39167;52.794;6.892;2023-01-30T15:34:58;27.33;;;5.00;;
53281;SDS011;39167;52.794;6.892;2023-01-30T15:55:29;26.42;;;4.28;;
53281;SDS011;39167;52.794;6.892;2023-01-30T15:58:04;22.13;;;4.25;;
53281;SDS011;39167;52.794;6.892;2023-01-30T16:00:40;20.30;;;4.28;;
53281;SDS011;39167;52.794;6.892;2023-01-30T16:03:10;26.27;;;4.32;;
53281;SDS011;39167;52.794;6.892;2023-01-30T16:08:35;20.45;;;3.15;;
53281;SDS011;39167;52.794;6.892;2023-01-30T16:11:01;18.20;;;2.97;;
53281;SDS011;39167;52.794;6.892;2023-01-30T16:13:27;16.15;;;2.75;;
53281;SDS011;39167;52.794;6.892;2023-01-30T16:20:53;19.50;;;3.17;;
53281;SDS011;39167;52.794;6.892;2023-01-30T16:23:22;20.33;;;3.75;;
53281;SDS011;39167;52.794;6.892;2023-01-30T16:25:53;18.38;;;3.42;;
53281;SDS011;39167;52.794;6.892;2023-01-30T16:28:23;22.52;;;4.55;;
53281;SDS011;39167;52.794;6.892;2023-01-30T16:31:03;19.15;;;3.53;;
53281;SDS011;39167;52.794;6.892;2023-01-30T16:33:31;19.65;;;3.80;;
53281;SDS011;39167;52.794;6.892;2023-01-30T16:36:45;24.13;;;3.20;;
53281;SDS011;39167;52.794;6.892;2023-01-30T16:38:47;26.20;;;4.05;;
53281;SDS011;39167;52.794;6.892;2023-01-30T16:41:33;25.48;;;4.03;;
53281;SDS011;39167;52.794;6.892;2023-01-30T16:44:19;32.25;;;5.20;;
53281;SDS011;39167;52.794;6.892;2023-01-30T16:46:51;18.48;;;4.38;;
53281;SDS011;39167;52.794;6.892;2023-01-30T16:55:04;30.80;;;3.83;;
53281;SDS011;39167;52.794;6.892;2023-01-30T17:02:50;32.17;;;4.40;;
53281;SDS011;39167;52.794;6.892;2023-01-30T17:05:25;31.77;;;5.15;;
53281;SDS011;39167;52.794;6.892;2023-01-30T17:07:53;26.67;;;4.65;;
53281;SDS011;39167;52.794;6.892;2023-01-30T17:12:52;24.73;;;3.90;;
53281;SDS011;39167;52.794;6.892;2023-01-30T17:15:24;31.38;;;5.75;;
53281;SDS011;39167;52.794;6.892;2023-01-30T17:17:51;32.85;;;5.20;;
53281;SDS011;39167;52.794;6.892;2023-01-30T17:20:16;21.67;;;4.68;;
53281;SDS011;39167;52.794;6.892;2023-01-30T17:22:43;30.95;;;5.25;;
53281;SDS011;39167;52.794;6.892;2023-01-30T17:25:20;31.83;;;5.15;;
53281;SDS011;39167;52.794;6.892;2023-01-30T17:27:53;30.30;;;5.00;;
53281;SDS011;39167;52.794;6.892;2023-01-30T17:30:18;28.00;;;5.22;;
53281;SDS011;39167;52.794;6.892;2023-01-30T17:32:44;27.48;;;5.07;;
53281;SDS011;39167;52.794;6.892;2023-01-30T17:35:19;30.60;;;4.78;;
53281;SDS011;39167;52.794;6.892;2023-01-30T17:37:45;23.60;;;4.93;;
53281;SDS011;39167;52.794;6.892;2023-01-30T17:40:15;23.70;;;5.18;;
53281;SDS011;39167;52.794;6.892;2023-01-30T17:42:42;35.35;;;5.32;;
53281;SDS011;39167;52.794;6.892;2023-01-30T17:45:08;28.05;;;4.68;;
53281;SDS011;39167;52.794;6.892;2023-01-30T17:47:34;31.98;;;5.18;;
53281;SDS011;39167;52.794;6.892;2023-01-30T17:50:00;25.45;;;4.65;;
53281;SDS011;39167;52.794;6.892;2023-01-30T17:52:26;23.88;;;4.03;;
53281;SDS011;39167;52.794;6.892;2023-01-30T17:54:52;27.73;;;4.20;;
53281;SDS011;39167;52.794;6.892;2023-01-30T17:57:17;31.48;;;5.15;;
53281;SDS011;39167;52.794;6.892;2023-01-30T17:59:44;29.17;;;5.10;;
53281;SDS011;39167;52.794;6.892;2023-01-30T18:02:11;22.38;;;4.10;;
53281;SDS011;39167;52.794;6.892;2023-01-30T18:04:37;29.58;;;5.22;;
53281;SDS011;39167;52.794;6.892;2023-01-30T18:07:06;26.67;;;5.45;;
53281;SDS011;39167;52.794;6.892;2023-01-30T18:09:36;26.85;;;5.18;;
53281;SDS011;39167;52.794;6.892;2023-01-30T18:12:02;25.15;;;4.60;;